Durham — WDF3868 — position and weather

sailwx.info

Track history (hours):
 
Tides and Currents Weather Stations Pressure Air Temp Water Temp Dewpoint Dewpoint Depression Visibility Wind Speed Wind Dir Waves Ship Positions

Durham

Owner: KEN'S BOOMING & BOAT SERVICE, INC., BAYONNE, NJ. More information available from US FCC via Universal Licensing System and Coast Guard Vessel Documentation Center.

Last reported at 2018-Apr-23 13:16 UTC. Time now 2018-Apr-23 13:50 UTC.
Position N 40°40' W 074°05'.

Length 18 m.

MMSI: 367444950.

Date/timePositionNaut miles runAvg speedWind from/ knotsBaromVisibWave heightAir tempDewpointWater temp
2018-Apr-23 13:16N 40°40' W 074°05'  
2018-Apr-20 19:40N 40°39' W 074°07'0 0.0
2018-Apr-20 19:29N 40°39' W 074°07'1 2.7
2018-Apr-20 19:00N 40°39' W 074°05'3 6.1
2018-Apr-20 18:30N 40°41' W 074°02'2 3.7
2018-Apr-20 18:00N 40°42' W 074°00'0 0.0
2018-Apr-20 17:30N 40°42' W 074°00'0 0.0
2018-Apr-20 17:00N 40°42' W 074°00'0 0.1
2018-Apr-20 16:30N 40°42' W 074°00'0 0.0
2018-Apr-20 16:00N 40°42' W 074°00'0 0.0
2018-Apr-20 15:30N 40°42' W 074°00'0 0.1
2018-Apr-20 15:00N 40°42' W 074°00'0 0.0
2018-Apr-20 14:30N 40°42' W 074°00'0 0.0
2018-Apr-20 14:00N 40°42' W 074°00'0 0.0
2018-Apr-20 13:30N 40°42' W 074°00'0 0.0
2018-Apr-20 13:00N 40°42' W 074°00'0 0.0
2018-Apr-20 12:30N 40°42' W 074°00'0 0.0
2018-Apr-20 12:00N 40°42' W 074°00'0 0.0
2018-Apr-20 11:30N 40°42' W 074°00'0 0.0
2018-Apr-20 11:00N 40°42' W 074°00'2 4.1
2018-Apr-20 10:30N 40°41' W 074°02'3 7.0
2018-Apr-20 10:00N 40°39' W 074°06'1 0.0
2018-Apr-19 16:39N 40°39' W 074°07'1 7.2
2018-Apr-19 16:30N 40°38' W 074°09'3 5.1
2018-Apr-19 16:00N 40°41' W 074°08'2 4.9
2018-Apr-19 15:30N 40°39' W 074°08'3 6.6
2018-Apr-19 15:00N 40°39' W 074°04'3 6.3
2018-Apr-19 14:30N 40°42' W 074°02'4 7.3
2018-Apr-19 14:00N 40°46' W 074°01'4 7.5
2018-Apr-19 13:30N 40°49' W 073°58'2 1.1
2018-Apr-19 11:42N 40°49' W 073°56'2 4.4
2018-Apr-19 11:16N 40°47' W 073°56'2 7.6
2018-Apr-19 11:00N 40°45' W 073°58'3 6.7
2018-Apr-19 10:30N 40°42' W 073°60'3 6.8
2018-Apr-19 10:00N 40°40' W 074°03'3 0.2
2018-Apr-18 16:23N 40°39' W 074°07'0 0.1
2018-Apr-18 16:00N 40°39' W 074°07'1 1.7
2018-Apr-18 15:30N 40°39' W 074°06'0 0.8
2018-Apr-18 15:00N 40°39' W 074°06'0 0.0
2018-Apr-18 14:30N 40°39' W 074°06'0 0.0
2018-Apr-18 13:56N 40°39' W 074°06'0 0.0
2018-Apr-18 13:30N 40°39' W 074°06'0 0.0
2018-Apr-18 12:58N 40°39' W 074°06'0 0.0
2018-Apr-18 12:30N 40°39' W 074°06'0 0.0
2018-Apr-18 12:00N 40°39' W 074°06'1 0.1
2018-Apr-17 14:59N 40°39' W 074°07'2 4.7
2018-Apr-17 14:30N 40°39' W 074°04'3 6.4
2018-Apr-17 14:00N 40°42' W 074°02'0 0.2
2018-Apr-17 13:30N 40°42' W 074°02'0 0.0
2018-Apr-17 13:00N 40°42' W 074°02'0 0.0
2018-Apr-17 12:30N 40°42' W 074°02'1 1.0
2018-Apr-17 12:00N 40°43' W 074°02'0 0.5
2018-Apr-17 11:30N 40°43' W 074°03'0 0.3
2018-Apr-17 11:00N 40°43' W 074°03'1 2.2
2018-Apr-17 10:30N 40°42' W 074°02'4 7.6
2018-Apr-17 10:00N 40°39' W 074°06'  
2018-Apr-14 02:52N 40°39' W 074°07'3 8.9
2018-Apr-14 02:30N 40°40' W 074°03'3 5.9
2018-Apr-14 02:00N 40°42' W 074°00'0 0.1
2018-Apr-14 01:30N 40°42' W 074°00'0 0.0
2018-Apr-14 01:01N 40°42' W 074°00'0 0.1
2018-Apr-14 00:31N 40°42' W 074°00'0 0.0
2018-Apr-14 00:00N 40°42' W 074°00'0 0.0
2018-Apr-13 23:31N 40°42' W 074°00'0 0.0
2018-Apr-13 23:00N 40°42' W 074°00'0 0.0
2018-Apr-13 22:29N 40°42' W 074°00'0 0.0
2018-Apr-13 22:01N 40°42' W 074°00'0 0.0
2018-Apr-13 21:31N 40°42' W 074°00'0 0.0
2018-Apr-13 21:01N 40°42' W 074°00'0 0.0
2018-Apr-13 20:30N 40°42' W 074°00'0 0.0
2018-Apr-13 20:01N 40°42' W 074°00'0 0.0
2018-Apr-13 19:31N 40°42' W 074°00'0 0.0
2018-Apr-13 19:00N 40°42' W 074°00'0 0.0
2018-Apr-13 18:31N 40°42' W 074°00'0 0.0
2018-Apr-13 18:00N 40°42' W 074°00'0 0.0
2018-Apr-13 17:31N 40°42' W 074°00'0 0.0
2018-Apr-13 17:00N 40°42' W 074°00'0 0.0
2018-Apr-13 16:30N 40°42' W 074°00'0 0.0
2018-Apr-13 16:01N 40°42' W 074°00'0 0.0
2018-Apr-13 15:31N 40°42' W 074°00'0 0.0
2018-Apr-13 15:01N 40°42' W 074°00'0 0.0
2018-Apr-13 14:31N 40°42' W 074°00'0 0.0
2018-Apr-13 14:01N 40°42' W 074°00'0 0.0
2018-Apr-13 13:31N 40°42' W 074°00'  
Track history (hours):
 
Tides and Currents Weather Stations Pressure Air Temp Water Temp Dewpoint Dewpoint Depression Visibility Wind Speed Wind Dir Waves Ship Positions

Durham

Owner: KEN'S BOOMING & BOAT SERVICE, INC., BAYONNE, NJ. More information available from US FCC via Universal Licensing System and Coast Guard Vessel Documentation Center.

Last reported at 2018-Apr-23 13:16 UTC. Time now 2018-Apr-23 13:50 UTC.
Position N 40°40' W 074°05'.

Length 18 m.

MMSI: 367444950.

Date/timePositionNaut miles runAvg speedWind from/ knotsBaromVisibWave heightAir tempDewpointWater temp
2018-Apr-23 13:16N 40°40' W 074°05'  
2018-Apr-20 19:40N 40°39' W 074°07'0 0.0
2018-Apr-20 19:29N 40°39' W 074°07'1 2.7
2018-Apr-20 19:00N 40°39' W 074°05'3 6.1
2018-Apr-20 18:30N 40°41' W 074°02'2 3.7
2018-Apr-20 18:00N 40°42' W 074°00'0 0.0
2018-Apr-20 17:30N 40°42' W 074°00'0 0.0
2018-Apr-20 17:00N 40°42' W 074°00'0 0.1
2018-Apr-20 16:30N 40°42' W 074°00'0 0.0
2018-Apr-20 16:00N 40°42' W 074°00'0 0.0
2018-Apr-20 15:30N 40°42' W 074°00'0 0.1
2018-Apr-20 15:00N 40°42' W 074°00'0 0.0
2018-Apr-20 14:30N 40°42' W 074°00'0 0.0
2018-Apr-20 14:00N 40°42' W 074°00'0 0.0
2018-Apr-20 13:30N 40°42' W 074°00'0 0.0
2018-Apr-20 13:00N 40°42' W 074°00'0 0.0
2018-Apr-20 12:30N 40°42' W 074°00'0 0.0
2018-Apr-20 12:00N 40°42' W 074°00'0 0.0
2018-Apr-20 11:30N 40°42' W 074°00'0 0.0
2018-Apr-20 11:00N 40°42' W 074°00'2 4.1
2018-Apr-20 10:30N 40°41' W 074°02'3 7.0
2018-Apr-20 10:00N 40°39' W 074°06'1 0.0
2018-Apr-19 16:39N 40°39' W 074°07'1 7.2
2018-Apr-19 16:30N 40°38' W 074°09'3 5.1
2018-Apr-19 16:00N 40°41' W 074°08'2 4.9
2018-Apr-19 15:30N 40°39' W 074°08'3 6.6
2018-Apr-19 15:00N 40°39' W 074°04'3 6.3
2018-Apr-19 14:30N 40°42' W 074°02'4 7.3
2018-Apr-19 14:00N 40°46' W 074°01'4 7.5
2018-Apr-19 13:30N 40°49' W 073°58'2 1.1
2018-Apr-19 11:42N 40°49' W 073°56'2 4.4
2018-Apr-19 11:16N 40°47' W 073°56'2 7.6
2018-Apr-19 11:00N 40°45' W 073°58'3 6.7
2018-Apr-19 10:30N 40°42' W 073°60'3 6.8
2018-Apr-19 10:00N 40°40' W 074°03'3 0.2
2018-Apr-18 16:23N 40°39' W 074°07'0 0.1
2018-Apr-18 16:00N 40°39' W 074°07'1 1.7
2018-Apr-18 15:30N 40°39' W 074°06'0 0.8
2018-Apr-18 15:00N 40°39' W 074°06'0 0.0
2018-Apr-18 14:30N 40°39' W 074°06'0 0.0
2018-Apr-18 13:56N 40°39' W 074°06'0 0.0
2018-Apr-18 13:30N 40°39' W 074°06'0 0.0
2018-Apr-18 12:58N 40°39' W 074°06'0 0.0
2018-Apr-18 12:30N 40°39' W 074°06'0 0.0
2018-Apr-18 12:00N 40°39' W 074°06'1 0.1
2018-Apr-17 14:59N 40°39' W 074°07'2 4.7
2018-Apr-17 14:30N 40°39' W 074°04'3 6.4
2018-Apr-17 14:00N 40°42' W 074°02'0 0.2
2018-Apr-17 13:30N 40°42' W 074°02'0 0.0
2018-Apr-17 13:00N 40°42' W 074°02'0 0.0
2018-Apr-17 12:30N 40°42' W 074°02'1 1.0
2018-Apr-17 12:00N 40°43' W 074°02'0 0.5
2018-Apr-17 11:30N 40°43' W 074°03'0 0.3
2018-Apr-17 11:00N 40°43' W 074°03'1 2.2
2018-Apr-17 10:30N 40°42' W 074°02'4 7.6
2018-Apr-17 10:00N 40°39' W 074°06'  
2018-Apr-14 02:52N 40°39' W 074°07'3 8.9
2018-Apr-14 02:30N 40°40' W 074°03'3 5.9
2018-Apr-14 02:00N 40°42' W 074°00'0 0.1
2018-Apr-14 01:30N 40°42' W 074°00'0 0.0
2018-Apr-14 01:01N 40°42' W 074°00'0 0.1
2018-Apr-14 00:31N 40°42' W 074°00'0 0.0
2018-Apr-14 00:00N 40°42' W 074°00'0 0.0
2018-Apr-13 23:31N 40°42' W 074°00'0 0.0
2018-Apr-13 23:00N 40°42' W 074°00'0 0.0
2018-Apr-13 22:29N 40°42' W 074°00'0 0.0
2018-Apr-13 22:01N 40°42' W 074°00'0 0.0
2018-Apr-13 21:31N 40°42' W 074°00'0 0.0
2018-Apr-13 21:01N 40°42' W 074°00'0 0.0
2018-Apr-13 20:30N 40°42' W 074°00'0 0.0
2018-Apr-13 20:01N 40°42' W 074°00'0 0.0
2018-Apr-13 19:31N 40°42' W 074°00'0 0.0
2018-Apr-13 19:00N 40°42' W 074°00'0 0.0
2018-Apr-13 18:31N 40°42' W 074°00'0 0.0
2018-Apr-13 18:00N 40°42' W 074°00'0 0.0
2018-Apr-13 17:31N 40°42' W 074°00'0 0.0
2018-Apr-13 17:00N 40°42' W 074°00'0 0.0
2018-Apr-13 16:30N 40°42' W 074°00'0 0.0
2018-Apr-13 16:01N 40°42' W 074°00'0 0.0
2018-Apr-13 15:31N 40°42' W 074°00'0 0.0
2018-Apr-13 15:01N 40°42' W 074°00'0 0.0
2018-Apr-13 14:31N 40°42' W 074°00'0 0.0
2018-Apr-13 14:01N 40°42' W 074°00'0 0.0
2018-Apr-13 13:31N 40°42' W 074°00'  

Dump ship's entire track history